Time;durP1;ratioP1;P1;durP2;ratioP2;P2;SDS_P1;SDS_P2;PMS_P1;PMS_P2;Temp;Humidity;BMP_temperature;BMP_pressure;BME280_temperature;BME280_humidity;BME280_pressure;Samples;Min_cycle;Max_cycle;Signal;HPM_P1;HPM_P2
2022/12/23 00:01:22;;;;;;;9.73;6.22;;;11.90;99.90;;;;;;5073515;28;20420;-79
2022/12/23 00:03:48;;;;;;;9.23;6.40;;;11.90;99.90;;;;;;5082745;28;20039;-79
2022/12/23 00:06:15;;;;;;;10.82;6.43;;;11.80;99.90;;;;;;5093734;28;20067;-79
2022/12/23 00:08:41;;;;;;;9.85;6.28;;;11.80;99.90;;;;;;5093410;28;20017;-79
2022/12/23 00:11:12;;;;;;;8.00;5.90;;;11.80;99.90;;;;;;5093654;28;20093;-79
2022/12/23 00:16:22;;;;;;;8.98;5.93;;;11.90;99.90;;;;;;5093434;28;20043;-79
2022/12/23 00:18:48;;;;;;;8.75;5.70;;;11.90;99.90;;;;;;5093456;28;20453;-79
2022/12/23 00:21:15;;;;;;;8.77;6.22;;;11.90;99.90;;;;;;5089879;28;20028;-79
2022/12/23 00:23:46;;;;;;;8.15;5.78;;;11.90;99.90;;;;;;5072876;28;20485;-79
2022/12/23 00:26:30;;;;;;;11.05;6.25;;;11.80;99.90;;;;;;5072969;28;20017;-79
2022/12/23 00:28:59;;;;;;;11.88;7.50;;;11.80;99.90;;;;;;5073106;28;20036;-79
2022/12/23 00:31:24;;;;;;;10.50;6.88;;;11.60;99.90;;;;;;5072830;28;20036;-79
2022/12/23 00:33:52;;;;;;;10.57;6.82;;;11.50;99.90;;;;;;5073237;28;20020;-79
2022/12/23 00:36:26;;;;;;;8.30;6.05;;;11.50;99.90;;;;;;5072951;28;20036;-79
2022/12/23 00:44:22;;;;;;;7.47;6.10;;;11.40;99.90;;;;;;5073317;28;20035;-79
2022/12/23 00:46:48;;;;;;;9.75;5.65;;;11.30;99.90;;;;;;5072616;28;20024;-79
2022/12/23 00:52:01;;;;;;;7.45;5.35;;;11.20;99.90;;;;;;5072872;28;20035;-79
2022/12/23 00:54:28;;;;;;;7.60;5.25;;;11.10;99.90;;;;;;5072424;28;20531;-79
2022/12/23 00:56:54;;;;;;;5.63;4.20;;;11.10;99.90;;;;;;5072221;28;20024;-79
2022/12/23 00:59:19;;;;;;;6.32;4.45;;;11.00;99.90;;;;;;5071942;28;20020;-79
2022/12/23 01:07:13;;;;;;;7.07;4.10;;;11.00;99.90;;;;;;5092735;28;20400;-79
2022/12/23 01:09:39;;;;;;;6.13;4.47;;;11.00;99.90;;;;;;5092139;28;20024;-79
2022/12/23 01:12:05;;;;;;;5.50;3.63;;;11.00;99.90;;;;;;5092264;28;20473;-79
2022/12/23 01:14:31;;;;;;;5.03;3.65;;;10.90;99.90;;;;;;5092900;28;20402;-79
2022/12/23 01:16:57;;;;;;;3.85;2.97;;;10.90;99.90;;;;;;5092408;28;20032;-79
2022/12/23 01:19:23;;;;;;;4.25;3.10;;;10.90;99.90;;;;;;5092406;28;20481;-79
2022/12/23 01:21:48;;;;;;;4.05;3.08;;;10.90;99.90;;;;;;5083695;28;20056;-79
2022/12/23 01:24:14;;;;;;;4.38;3.08;;;11.00;99.90;;;;;;5071830;28;20031;-79
2022/12/23 01:26:40;;;;;;;4.88;2.80;;;11.00;99.90;;;;;;5071924;28;20537;-79
2022/12/23 01:29:06;;;;;;;4.13;2.72;;;10.90;99.90;;;;;;5072117;28;20024;-79
2022/12/23 01:31:33;;;;;;;2.88;2.47;;;10.80;99.90;;;;;;5072118;28;20051;-79
2022/12/23 01:33:58;;;;;;;4.03;2.55;;;10.80;99.90;;;;;;5072216;28;20009;-79
2022/12/23 01:36:24;;;;;;;3.08;2.30;;;10.70;99.90;;;;;;5072479;28;20036;-79
2022/12/23 01:38:50;;;;;;;4.50;2.80;;;10.60;99.90;;;;;;5070235;28;20567;-79
2022/12/23 01:42:42;;;;;;;2.70;2.20;;;10.50;99.90;;;;;;5072056;28;20103;-79
2022/12/23 01:44:41;;;;;;;2.75;2.40;;;10.40;99.90;;;;;;5072041;28;20111;-79
2022/12/23 01:47:12;;;;;;;2.53;2.20;;;10.30;99.90;;;;;;5072068;28;20031;-79
2022/12/23 01:49:38;;;;;;;2.97;2.15;;;10.40;99.90;;;;;;5072035;28;20035;-79
2022/12/23 01:52:04;;;;;;;2.28;2.08;;;10.50;99.90;;;;;;5071540;28;20127;-79
2022/12/23 01:54:30;;;;;;;3.05;2.17;;;10.50;99.90;;;;;;5070659;28;20545;-79
2022/12/23 01:56:56;;;;;;;2.67;2.22;;;10.60;99.90;;;;;;5071650;28;20074;-79
2022/12/23 02:04:52;;;;;;;4.03;2.60;;;10.50;99.90;;;;;;5089406;28;20031;-79
2022/12/23 02:10:04;;;;;;;4.15;2.40;;;10.40;99.90;;;;;;5094248;28;20038;-79
2022/12/23 02:12:38;;;;;;;3.03;2.15;;;10.50;99.90;;;;;;5095364;28;20062;-78
2022/12/23 02:18:33;;;;;;;3.90;2.67;;;10.30;99.90;;;;;;5096093;28;20557;-79
2022/12/23 02:21:23;;;;;;;3.22;2.65;;;10.20;99.90;;;;;;5093859;28;20024;-79
2022/12/23 02:24:23;;;;;;;5.18;2.92;;;10.20;99.90;;;;;;5075524;28;20102;-79
2022/12/23 02:27:15;;;;;;;3.88;2.40;;;10.10;99.90;;;;;;5075092;28;20048;-79
2022/12/23 02:29:59;;;;;;;2.95;2.65;;;10.10;99.90;;;;;;5075297;28;20064;-79
2022/12/23 02:32:38;;;;;;;3.45;2.60;;;10.10;99.90;;;;;;5075328;28;20024;-79
2022/12/23 02:35:12;;;;;;;2.72;2.20;;;10.00;99.90;;;;;;5075489;28;20028;-79
2022/12/23 02:38:02;;;;;;;3.58;3.00;;;10.00;99.90;;;;;;5074965;28;20044;-79
2022/12/23 02:40:37;;;;;;;4.40;3.13;;;10.10;99.90;;;;;;5075107;28;20028;-79
2022/12/23 02:43:07;;;;;;;3.28;2.65;;;10.10;99.90;;;;;;5073268;28;20024;-79
2022/12/23 02:45:57;;;;;;;3.63;2.85;;;10.10;99.90;;;;;;5075281;28;20104;-79
2022/12/23 02:48:50;;;;;;;3.65;3.17;;;10.10;99.90;;;;;;5075142;28;20020;-79
2022/12/23 02:51:19;;;;;;;4.28;2.95;;;9.90;99.90;;;;;;5075099;28;20056;-79
2022/12/23 02:53:55;;;;;;;3.03;2.70;;;9.90;99.90;;;;;;5074778;28;20032;-79
2022/12/23 02:56:24;;;;;;;4.05;3.33;;;10.00;99.90;;;;;;5075160;28;20017;-78
2022/12/23 02:59:13;;;;;;;3.15;2.60;;;9.90;99.90;;;;;;5074517;28;20028;-79
2022/12/23 03:01:39;;;;;;;3.05;2.45;;;9.90;99.90;;;;;;5074940;28;20025;-79
2022/12/23 03:04:05;;;;;;;3.15;2.50;;;9.90;99.90;;;;;;5086098;28;20121;-79
2022/12/23 03:06:37;;;;;;;4.47;2.67;;;9.90;99.90;;;;;;5094827;28;20121;-79
2022/12/23 03:09:03;;;;;;;2.47;2.10;;;9.90;99.90;;;;;;5094760;28;20031;-78
2022/12/23 03:11:39;;;;;;;3.17;2.28;;;9.80;99.90;;;;;;5094733;28;20550;-79
2022/12/23 03:14:24;;;;;;;2.60;2.40;;;9.80;99.90;;;;;;5094761;28;20539;-79
2022/12/23 03:17:08;;;;;;;3.40;2.20;;;9.70;99.90;;;;;;5094632;28;20100;-79
2022/12/23 03:19:45;;;;;;;2.50;1.95;;;9.80;99.90;;;;;;5092995;28;20028;-79
2022/12/23 03:22:37;;;;;;;2.10;1.90;;;9.70;99.90;;;;;;5082085;28;20021;-79
2022/12/23 03:25:16;;;;;;;3.10;2.00;;;9.70;99.90;;;;;;5051823;28;20102;-79
2022/12/23 03:28:08;;;;;;;3.47;2.30;;;9.80;99.90;;;;;;5051475;28;20079;-79
2022/12/23 03:30:36;;;;;;;3.10;2.20;;;9.80;99.90;;;;;;5049951;28;20041;-79
2022/12/23 03:33:15;;;;;;;4.03;2.03;;;9.70;99.90;;;;;;5051725;28;20052;-78
2022/12/23 03:35:55;;;;;;;2.25;2.03;;;9.60;99.90;;;;;;5051562;28;20052;-78
2022/12/23 03:38:22;;;;;;;3.15;2.20;;;9.60;99.90;;;;;;5051376;28;20028;-78
2022/12/23 03:41:03;;;;;;;3.17;2.13;;;9.70;99.90;;;;;;5051408;28;20021;-79
2022/12/23 03:43:37;;;;;;;3.88;2.20;;;9.70;99.90;;;;;;5050967;28;20059;-78
2022/12/23 03:46:08;;;;;;;3.45;2.33;;;9.80;99.90;;;;;;5051511;28;20025;-79
2022/12/23 03:48:45;;;;;;;3.03;2.30;;;9.80;99.90;;;;;;5051203;28;20049;-79
2022/12/23 03:51:24;;;;;;;2.63;2.15;;;9.70;99.90;;;;;;5051507;28;20071;-78
2022/12/23 03:54:02;;;;;;;3.72;2.33;;;9.70;99.90;;;;;;5051279;28;20029;-79
2022/12/23 03:56:33;;;;;;;3.63;2.35;;;9.70;99.90;;;;;;5051486;28;20044;-79
2022/12/23 03:59:24;;;;;;;3.55;2.65;;;9.60;99.90;;;;;;5050902;28;20036;-79
2022/12/23 04:01:58;;;;;;;3.83;2.50;;;9.70;99.90;;;;;;5052345;28;20029;-79
2022/12/23 04:04:31;;;;;;;2.45;2.10;;;9.70;99.90;;;;;;5081137;28;20103;-79
2022/12/23 04:06:59;;;;;;;2.55;2.20;;;9.60;99.90;;;;;;5093745;28;20028;-79
2022/12/23 04:09:27;;;;;;;2.25;2.05;;;9.70;99.90;;;;;;5093383;28;20079;-78
2022/12/23 04:11:54;;;;;;;3.15;2.10;;;9.60;99.90;;;;;;5093491;28;20028;-79
2022/12/23 04:14:20;;;;;;;2.05;1.85;;;9.70;99.90;;;;;;5093316;28;20012;-79
2022/12/23 04:16:49;;;;;;;4.63;2.25;;;9.60;99.90;;;;;;5093466;28;20020;-79
2022/12/23 04:19:15;;;;;;;2.75;2.15;;;9.60;99.90;;;;;;5093457;28;20028;-79
2022/12/23 04:21:40;;;;;;;2.22;1.80;;;9.60;99.90;;;;;;5085949;28;20043;-79
2022/12/23 04:24:06;;;;;;;2.78;1.65;;;9.70;99.90;;;;;;5072901;28;20381;-79
2022/12/23 04:26:32;;;;;;;2.28;2.05;;;9.70;99.90;;;;;;5073049;28;20020;-79
2022/12/23 04:28:58;;;;;;;2.83;1.95;;;9.70;99.90;;;;;;5072939;28;20024;-79
2022/12/23 04:31:23;;;;;;;5.35;2.13;;;9.70;99.90;;;;;;5073232;28;20485;-79
2022/12/23 04:33:49;;;;;;;2.38;2.00;;;9.70;99.90;;;;;;5071863;28;20397;-79
2022/12/23 04:36:15;;;;;;;4.43;2.85;;;9.70;99.90;;;;;;5072866;28;20049;-79
2022/12/23 04:38:40;;;;;;;3.08;2.78;;;9.80;99.90;;;;;;5072655;28;20031;-78
2022/12/23 04:41:06;;;;;;;3.05;2.40;;;9.70;99.90;;;;;;5072695;28;20032;-78
2022/12/23 04:43:32;;;;;;;3.00;2.28;;;9.60;99.90;;;;;;5072422;28;20088;-79
2022/12/23 04:45:57;;;;;;;3.15;2.03;;;9.50;99.90;;;;;;5072369;28;20400;-79
2022/12/23 04:48:23;;;;;;;4.53;2.50;;;9.60;99.90;;;;;;5072596;28;20028;-79
2022/12/23 04:50:49;;;;;;;5.05;2.45;;;9.60;99.90;;;;;;5072439;28;20498;-78
2022/12/23 04:53:14;;;;;;;3.67;2.42;;;9.60;99.90;;;;;;5072843;28;20027;-78
2022/12/23 04:55:40;;;;;;;2.97;2.13;;;9.50;99.90;;;;;;5072617;28;20473;-78
2022/12/23 04:58:06;;;;;;;2.83;2.33;;;9.40;99.90;;;;;;5072764;28;20509;-79
2022/12/23 05:00:31;;;;;;;2.28;2.08;;;9.40;99.90;;;;;;5072165;28;20024;-79
2022/12/23 05:02:57;;;;;;;3.30;2.78;;;9.40;99.90;;;;;;5074627;28;20029;-79
2022/12/23 05:05:23;;;;;;;4.78;2.33;;;9.40;99.90;;;;;;5092670;28;20512;-79
2022/12/23 05:07:49;;;;;;;2.67;2.30;;;9.30;99.90;;;;;;5092710;28;20512;-79
2022/12/23 05:10:15;;;;;;;3.83;2.40;;;9.30;99.90;;;;;;5092378;28;20050;-78
2022/12/23 05:12:40;;;;;;;3.13;2.50;;;9.20;99.90;;;;;;5092731;28;20476;-78
2022/12/23 05:15:07;;;;;;;3.83;2.53;;;9.20;99.90;;;;;;5092515;28;20375;-79
2022/12/23 05:17:33;;;;;;;3.00;2.70;;;9.30;99.90;;;;;;5092355;28;20103;-79
2022/12/23 05:19:59;;;;;;;3.03;2.03;;;9.20;99.90;;;;;;5092486;28;20099;-78
2022/12/23 05:22:24;;;;;;;2.53;2.22;;;9.20;99.90;;;;;;5078693;28;20071;-79
2022/12/23 05:24:50;;;;;;;2.72;2.05;;;9.10;99.90;;;;;;5071856;28;20051;-78
2022/12/23 05:27:16;;;;;;;2.35;2.13;;;9.10;99.90;;;;;;5072148;28;20045;-78
2022/12/23 05:29:41;;;;;;;2.80;2.38;;;9.10;99.90;;;;;;5071968;28;20466;-79
2022/12/23 05:32:07;;;;;;;2.42;2.00;;;9.00;99.90;;;;;;5071921;28;20016;-79
2022/12/23 05:34:33;;;;;;;3.20;2.35;;;9.10;99.90;;;;;;5072277;28;20028;-78
2022/12/23 05:36:58;;;;;;;3.00;2.30;;;9.00;99.90;;;;;;5072081;28;20023;-78
2022/12/23 05:39:24;;;;;;;2.80;2.28;;;9.10;99.90;;;;;;5071873;28;20547;-78
2022/12/23 05:41:50;;;;;;;3.75;2.30;;;9.00;99.90;;;;;;5072087;28;20397;-79
2022/12/23 05:44:15;;;;;;;3.92;2.47;;;9.10;99.90;;;;;;5072504;28;20119;-78
2022/12/23 05:46:41;;;;;;;2.72;2.20;;;9.10;99.90;;;;;;5076178;28;20024;-79
2022/12/23 05:49:07;;;;;;;2.53;2.20;;;9.00;99.90;;;;;;5075936;28;20032;-79
2022/12/23 05:51:32;;;;;;;3.05;2.35;;;8.90;99.90;;;;;;5076361;28;20024;-78
2022/12/23 05:53:58;;;;;;;2.35;2.15;;;8.90;99.90;;;;;;5076024;28;20474;-79
2022/12/23 05:56:24;;;;;;;3.30;2.50;;;8.90;99.90;;;;;;5076308;28;20467;-79
2022/12/23 05:58:49;;;;;;;3.67;2.70;;;8.90;99.90;;;;;;5075621;28;20545;-78
2022/12/23 06:01:15;;;;;;;3.53;2.08;;;8.90;99.90;;;;;;5076019;28;20389;-79
2022/12/23 06:03:41;;;;;;;3.25;2.30;;;8.90;99.90;;;;;;5083950;28;20047;-78
2022/12/23 06:06:07;;;;;;;2.33;2.13;;;8.90;99.90;;;;;;5095983;28;20023;-79
2022/12/23 06:08:32;;;;;;;3.05;1.98;;;8.80;99.90;;;;;;5096332;28;20024;-79
2022/12/23 06:10:58;;;;;;;2.55;2.35;;;8.70;99.90;;;;;;5095930;28;20589;-79
2022/12/23 06:13:24;;;;;;;2.60;2.10;;;8.70;99.90;;;;;;5095595;28;20031;-78
2022/12/23 06:15:50;;;;;;;2.80;2.00;;;8.70;99.90;;;;;;5096147;28;20043;-79
2022/12/23 06:18:16;;;;;;;2.10;1.90;;;8.70;99.90;;;;;;5095887;28;20473;-79
2022/12/23 06:20:45;;;;;;;2.50;1.77;;;8.80;99.90;;;;;;5095402;28;20028;-78
2022/12/23 06:23:11;;;;;;;2.63;2.15;;;8.70;99.90;;;;;;5075883;28;20090;-78
2022/12/23 06:25:37;;;;;;;3.72;2.60;;;8.70;99.90;;;;;;5075128;28;20411;-78
2022/12/23 06:28:02;;;;;;;2.40;2.20;;;8.70;99.90;;;;;;5074763;28;20040;-78
2022/12/23 06:30:28;;;;;;;2.90;1.85;;;8.70;99.90;;;;;;5075542;28;20021;-79
2022/12/23 06:32:54;;;;;;;2.38;2.10;;;8.60;99.90;;;;;;5075073;28;20028;-79
2022/12/23 06:35:19;;;;;;;3.55;2.33;;;8.70;99.90;;;;;;5075342;28;20017;-78
2022/12/23 06:37:45;;;;;;;2.13;1.90;;;8.70;99.90;;;;;;5075228;28;20093;-78
2022/12/23 06:40:11;;;;;;;2.70;1.95;;;8.70;99.90;;;;;;5075072;28;20485;-79
2022/12/23 06:42:37;;;;;;;3.55;1.85;;;8.70;99.90;;;;;;5075021;28;20025;-79
2022/12/23 06:45:03;;;;;;;2.15;1.85;;;8.70;99.90;;;;;;5075109;28;20555;-78
2022/12/23 06:47:29;;;;;;;2.80;2.05;;;8.80;99.90;;;;;;5073531;28;20501;-78
2022/12/23 06:49:54;;;;;;;2.95;2.30;;;8.70;99.90;;;;;;5075138;28;20037;-78
2022/12/23 06:52:21;;;;;;;2.63;2.05;;;8.80;99.90;;;;;;5075176;28;20028;-79
2022/12/23 06:54:47;;;;;;;4.82;2.53;;;8.60;99.90;;;;;;5074801;28;20017;-78
2022/12/23 06:57:13;;;;;;;2.85;2.60;;;8.60;99.90;;;;;;5073894;28;20027;-79
2022/12/23 06:59:39;;;;;;;2.40;2.20;;;8.60;99.90;;;;;;5074870;28;20489;-78
2022/12/23 07:02:05;;;;;;;3.97;2.65;;;8.70;99.90;;;;;;5074910;28;20376;-78
2022/12/23 07:04:31;;;;;;;3.05;2.35;;;8.60;99.90;;;;;;5089705;28;20028;-78
2022/12/23 07:06:57;;;;;;;2.97;2.33;;;8.60;99.90;;;;;;5094892;28;20030;-78
2022/12/23 07:09:23;;;;;;;3.47;2.65;;;8.60;99.90;;;;;;5094681;28;20020;-78
2022/12/23 07:11:49;;;;;;;4.43;3.05;;;8.60;99.90;;;;;;5094648;28;20077;-78
2022/12/23 07:14:14;;;;;;;3.28;2.30;;;8.60;99.90;;;;;;5094810;28;20028;-78
2022/12/23 07:16:40;;;;;;;4.45;2.35;;;8.50;99.90;;;;;;5094820;28;20469;-78
2022/12/23 07:19:06;;;;;;;3.40;2.20;;;8.50;99.90;;;;;;5093260;28;20393;-79
2022/12/23 07:21:33;;;;;;;2.72;2.20;;;8.50;99.90;;;;;;5088093;28;20027;-78
2022/12/23 07:23:59;;;;;;;3.97;2.40;;;8.50;99.90;;;;;;5074588;28;20512;-78
2022/12/23 07:26:24;;;;;;;4.45;2.67;;;8.50;99.90;;;;;;5073937;28;20028;-79
2022/12/23 07:28:50;;;;;;;3.45;2.53;;;8.60;99.90;;;;;;5074396;28;20017;-78
2022/12/23 07:31:16;;;;;;;3.63;2.50;;;8.60;99.90;;;;;;5074338;28;20032;-79
2022/12/23 07:33:42;;;;;;;3.90;2.35;;;8.40;99.90;;;;;;5074301;28;20536;-78
2022/12/23 07:36:08;;;;;;;2.60;2.35;;;8.50;99.90;;;;;;5074051;28;20028;-79
2022/12/23 07:38:33;;;;;;;4.80;2.83;;;8.60;99.90;;;;;;5074228;28;20024;-78
2022/12/23 07:40:59;;;;;;;3.20;2.42;;;8.20;99.90;;;;;;5073514;28;20497;-78
2022/12/23 07:43:25;;;;;;;5.03;2.85;;;8.10;99.90;;;;;;5073835;28;20060;-78
2022/12/23 07:45:50;;;;;;;3.60;3.00;;;8.20;99.90;;;;;;5074140;28;20029;-78
2022/12/23 07:48:16;;;;;;;4.00;2.30;;;8.20;99.90;;;;;;5073928;28;20033;-78
2022/12/23 07:50:41;;;;;;;5.00;2.58;;;8.50;99.90;;;;;;5073634;28;20021;-77
2022/12/23 07:53:07;;;;;;;3.45;2.53;;;8.60;99.90;;;;;;5074001;28;20082;-78
2022/12/23 07:55:33;;;;;;;5.43;2.50;;;8.70;99.90;;;;;;5073171;28;20493;-78
2022/12/23 07:57:59;;;;;;;2.88;2.40;;;8.90;99.90;;;;;;5073561;28;20025;-78
2022/12/23 08:00:24;;;;;;;3.42;2.35;;;8.80;99.90;;;;;;5073813;28;20500;-78
2022/12/23 08:02:50;;;;;;;3.05;2.75;;;8.70;99.90;;;;;;5074595;28;20020;-78
2022/12/23 08:05:16;;;;;;;4.35;2.70;;;8.80;99.90;;;;;;5093865;28;20427;-78
2022/12/23 08:07:43;;;;;;;5.03;3.15;;;8.80;99.90;;;;;;5093735;28;20437;-78
2022/12/23 08:10:10;;;;;;;3.42;2.30;;;9.10;99.90;;;;;;5093311;28;20500;-78
2022/12/23 08:12:35;;;;;;;3.67;2.30;;;9.00;99.90;;;;;;5093771;28;20021;-78
2022/12/23 08:15:01;;;;;;;3.05;2.35;;;9.20;99.90;;;;;;5093794;28;20022;-78
2022/12/23 08:17:29;;;;;;;4.88;3.08;;;9.10;99.90;;;;;;5093743;28;20492;-78
2022/12/23 08:19:55;;;;;;;2.70;2.33;;;9.20;99.90;;;;;;5093504;28;20107;-78
2022/12/23 08:22:21;;;;;;;2.22;2.03;;;9.20;99.90;;;;;;5080063;28;20016;-78
2022/12/23 08:24:47;;;;;;;3.88;2.20;;;9.20;99.90;;;;;;5072591;28;20382;-78
2022/12/23 08:27:13;;;;;;;2.95;2.63;;;9.30;99.90;;;;;;5073109;28;20045;-78
2022/12/23 08:29:39;;;;;;;4.25;2.40;;;9.30;99.90;;;;;;5073190;28;20094;-78
2022/12/23 08:32:06;;;;;;;3.08;2.65;;;9.70;99.90;;;;;;5073198;28;20058;-78
2022/12/23 08:34:31;;;;;;;2.80;2.47;;;9.80;99.90;;;;;;5072875;28;20016;-78
2022/12/23 08:36:57;;;;;;;2.58;2.10;;;9.80;99.90;;;;;;5072730;28;20602;-78
2022/12/23 08:39:23;;;;;;;3.45;2.67;;;9.90;99.90;;;;;;5072412;28;20025;-78
2022/12/23 08:41:49;;;;;;;2.75;2.40;;;10.00;99.90;;;;;;5072543;28;20513;-78
2022/12/23 08:44:15;;;;;;;3.08;2.40;;;10.30;99.90;;;;;;5072917;28;20039;-78
2022/12/23 08:46:42;;;;;;;3.55;2.67;;;10.60;99.90;;;;;;5072707;28;20017;-78
2022/12/23 08:49:09;;;;;;;2.90;2.58;;;10.80;99.90;;;;;;5072820;28;20055;-78
2022/12/23 08:51:36;;;;;;;2.50;2.30;;;10.80;99.90;;;;;;5072527;28;20021;-78
2022/12/23 08:54:03;;;;;;;3.13;2.72;;;10.80;99.90;;;;;;5072656;28;20048;-78
2022/12/23 08:56:32;;;;;;;4.40;2.60;;;10.80;99.90;;;;;;5072523;28;20025;-78
2022/12/23 08:58:58;;;;;;;3.47;3.15;;;10.60;99.90;;;;;;5072726;28;20028;-79
2022/12/23 09:01:26;;;;;;;5.20;2.78;;;11.00;99.90;;;;;;5072542;28;20051;-78
2022/12/23 09:03:52;;;;;;;3.83;2.50;;;12.30;99.90;;;;;;5082366;28;20030;-78
2022/12/23 09:06:22;;;;;;;4.10;3.25;;;13.30;99.90;;;;;;5092617;28;20556;-78
2022/12/23 09:08:48;;;;;;;6.20;3.20;;;13.80;99.90;;;;;;5092258;28;20031;-78
2022/12/23 09:11:22;;;;;;;4.35;2.75;;;15.20;99.90;;;;;;5092592;28;20095;-79
2022/12/23 09:13:48;;;;;;;3.63;2.72;;;16.20;99.90;;;;;;5092591;28;20031;-79
2022/12/23 09:16:14;;;;;;;3.75;3.20;;;15.30;99.90;;;;;;5092547;28;20012;-79
2022/12/23 09:18:40;;;;;;;5.55;3.38;;;13.80;99.90;;;;;;5092068;28;20249;-78
2022/12/23 09:21:12;;;;;;;4.00;2.90;;;13.00;99.90;;;;;;5089451;28;21126;-78
2022/12/23 09:23:38;;;;;;;6.35;3.60;;;12.50;99.90;;;;;;5072202;28;20032;-79
2022/12/23 09:26:05;;;;;;;5.28;3.35;;;12.30;99.90;;;;;;5072017;28;20032;-78
2022/12/23 09:28:30;;;;;;;7.43;3.47;;;12.10;99.90;;;;;;5072225;28;20124;-79
2022/12/23 09:30:56;;;;;;;4.28;3.20;;;12.20;99.90;;;;;;5072103;28;20427;-79
2022/12/23 09:33:22;;;;;;;5.20;3.70;;;12.10;99.90;;;;;;5072032;28;20485;-79
2022/12/23 09:35:48;;;;;;;4.88;3.28;;;12.10;99.90;;;;;;5072388;28;20415;-79
2022/12/23 09:38:13;;;;;;;5.53;3.45;;;12.00;99.90;;;;;;5071935;28;20032;-79
2022/12/23 09:40:41;;;;;;;3.92;3.05;;;12.10;99.90;;;;;;5071800;28;20028;-79
2022/12/23 09:43:34;;;;;;;5.57;2.80;;;12.20;99.90;;;;;;5071880;28;20020;-79
2022/12/23 09:46:17;;;;;;;3.88;3.05;;;12.30;99.90;;;;;;5072194;28;20028;-79
2022/12/23 09:48:55;;;;;;;4.10;2.75;;;12.30;99.90;;;;;;5072056;28;20052;-79
2022/12/23 09:51:22;;;;;;;3.75;2.70;;;12.30;99.90;;;;;;5071581;28;20031;-78
2022/12/23 09:54:12;;;;;;;4.45;2.80;;;12.60;99.90;;;;;;5072230;28;20021;-79
2022/12/23 09:56:50;;;;;;;4.28;2.92;;;12.60;99.90;;;;;;5071976;28;20013;-79
2022/12/23 09:59:28;;;;;;;3.95;3.13;;;12.70;99.90;;;;;;5072237;28;20056;-79
2022/12/23 10:02:05;;;;;;;4.40;2.80;;;12.80;99.90;;;;;;5071963;28;20025;-78
2022/12/23 10:05:12;;;;;;;4.47;2.92;;;12.90;99.90;;;;;;5087112;28;20181;-79
2022/12/23 10:08:00;;;;;;;3.10;2.47;;;12.80;99.90;;;;;;5089823;28;20531;-79
2022/12/23 10:10:34;;;;;;;3.28;2.65;;;12.90;99.90;;;;;;5091940;28;20032;-79
2022/12/23 10:13:04;;;;;;;2.63;2.38;;;13.00;99.90;;;;;;5091758;28;20027;-79
2022/12/23 10:15:42;;;;;;;4.65;2.58;;;13.10;99.90;;;;;;5092121;28;20031;-79
2022/12/23 10:18:56;;;;;;;3.40;2.42;;;13.10;99.90;;;;;;5091856;28;20020;-78
2022/12/23 10:21:31;;;;;;;3.75;2.15;;;13.30;99.90;;;;;;5018487;28;20038;-79
2022/12/23 10:24:02;;;;;;;2.63;1.90;;;13.30;99.90;;;;;;4992995;28;20613;-79
2022/12/23 10:26:37;;;;;;;3.28;2.17;;;13.40;99.90;;;;;;5009271;28;20121;-79
2022/12/23 10:29:20;;;;;;;2.78;2.25;;;13.60;99.90;;;;;;5009418;28;20044;-79
2022/12/23 10:31:48;;;;;;;3.70;2.28;;;13.60;99.90;;;;;;5012686;28;20038;-79
2022/12/23 10:34:22;;;;;;;2.60;2.05;;;13.40;99.90;;;;;;5012994;28;20034;-79
2022/12/23 10:37:01;;;;;;;3.10;2.60;;;13.50;99.90;;;;;;5012860;28;20065;-79
2022/12/23 10:39:44;;;;;;;2.80;2.20;;;13.50;99.90;;;;;;5012882;28;20092;-79
2022/12/23 10:42:17;;;;;;;2.90;2.03;;;13.50;99.90;;;;;;5012762;28;20113;-79
2022/12/23 10:45:24;;;;;;;2.50;2.30;;;13.60;99.90;;;;;;5013099;28;20038;-79
2022/12/23 10:48:04;;;;;;;3.25;2.72;;;13.60;99.90;;;;;;5010876;28;20093;-79
2022/12/23 10:50:50;;;;;;;2.75;2.00;;;13.70;99.90;;;;;;5012694;28;20085;-79
2022/12/23 10:53:29;;;;;;;2.28;2.08;;;13.80;99.90;;;;;;5012468;28;20152;-79
2022/12/23 10:55:56;;;;;;;3.70;2.20;;;13.80;99.90;;;;;;4996228;28;20057;-79
2022/12/23 10:58:22;;;;;;;2.50;2.13;;;13.90;99.90;;;;;;5059013;28;20064;-79
2022/12/23 11:00:57;;;;;;;2.90;2.10;;;14.10;99.90;;;;;;5075013;28;20052;-79
2022/12/23 11:03:38;;;;;;;3.28;2.10;;;14.10;99.90;;;;;;5080190;28;20031;-79
2022/12/23 11:06:07;;;;;;;3.42;2.72;;;14.10;99.90;;;;;;5095176;28;20020;-79
2022/12/23 11:08:36;;;;;;;4.13;2.78;;;14.20;99.90;;;;;;5095181;28;20035;-79
2022/12/23 11:11:02;;;;;;;2.60;2.00;;;14.50;99.90;;;;;;5094663;28;20103;-79
2022/12/23 11:13:31;;;;;;;3.88;2.63;;;14.70;99.90;;;;;;5094766;28;20020;-79
2022/12/23 11:16:15;;;;;;;6.53;2.83;;;14.70;99.90;;;;;;5094943;28;20020;-79
2022/12/23 11:18:57;;;;;;;3.60;2.70;;;14.70;99.90;;;;;;5094639;28;20130;-78
2022/12/23 11:21:24;;;;;;;3.72;2.72;;;14.80;99.90;;;;;;5089393;28;20020;-79
2022/12/23 11:24:08;;;;;;;4.95;3.08;;;15.00;99.90;;;;;;5074385;28;20024;-79
2022/12/23 11:26:34;;;;;;;5.57;3.03;;;15.00;99.90;;;;;;5072815;28;20047;-79
2022/12/23 11:29:15;;;;;;;4.15;2.65;;;15.10;99.90;;;;;;5074400;28;20060;-79
2022/12/23 11:31:42;;;;;;;5.60;2.78;;;15.10;99.90;;;;;;5074207;28;20016;-79
2022/12/23 11:34:16;;;;;;;5.05;3.15;;;15.50;99.90;;;;;;5074183;28;20115;-79
2022/12/23 11:36:42;;;;;;;3.97;3.03;;;15.50;99.90;;;;;;5074284;28;20089;-79
2022/12/23 11:39:39;;;;;;;3.63;2.72;;;15.40;99.90;;;;;;5074260;28;20525;-79
2022/12/23 11:42:18;;;;;;;3.67;2.60;;;15.20;99.90;;;;;;5070209;28;20048;-79
2022/12/23 11:44:49;;;;;;;5.07;2.92;;;15.40;99.90;;;;;;5073871;28;20016;-79
2022/12/23 11:47:21;;;;;;;4.20;3.00;;;15.50;99.90;;;;;;5073807;28;20029;-79
2022/12/23 11:49:51;;;;;;;2.58;2.33;;;15.40;99.90;;;;;;5073948;28;20036;-79
2022/12/23 11:52:19;;;;;;;3.60;2.47;;;15.20;99.90;;;;;;5073707;28;20072;-79
2022/12/23 11:54:54;;;;;;;4.72;2.75;;;15.50;99.90;;;;;;5073580;28;20169;-79
2022/12/23 11:57:38;;;;;;;5.15;2.80;;;15.80;99.90;;;;;;5073878;28;20024;-79
2022/12/23 12:00:06;;;;;;;6.85;2.65;;;15.90;99.90;;;;;;5073817;28;20054;-79
2022/12/23 12:02:41;;;;;;;4.95;2.67;;;15.80;99.90;;;;;;5073593;28;20058;-79
2022/12/23 12:05:39;;;;;;;3.97;2.95;;;15.70;99.90;;;;;;5093619;28;20023;-79
2022/12/23 12:08:10;;;;;;;4.53;2.50;;;15.70;99.90;;;;;;5093763;28;20562;-79
2022/12/23 12:10:39;;;;;;;4.50;2.65;;;15.60;99.90;;;;;;5093441;28;20012;-79
2022/12/23 12:13:18;;;;;;;3.17;2.50;;;15.80;99.90;;;;;;5093704;28;20032;-79
2022/12/23 12:16:06;;;;;;;4.93;3.05;;;15.70;99.90;;;;;;5093514;28;20095;-79
2022/12/23 12:18:33;;;;;;;3.40;2.25;;;15.90;99.90;;;;;;5093649;28;20034;-79
2022/12/23 12:21:04;;;;;;;6.70;2.88;;;16.10;99.90;;;;;;5091909;28;20020;-79
2022/12/23 12:23:47;;;;;;;6.00;2.75;;;16.40;99.90;;;;;;5073409;28;20119;-79
2022/12/23 12:26:35;;;;;;;5.90;3.08;;;16.40;99.90;;;;;;5073067;28;20113;-79
2022/12/23 12:29:17;;;;;;;6.28;3.03;;;16.40;99.90;;;;;;5073186;28;20033;-79
2022/12/23 12:31:56;;;;;;;5.38;2.72;;;16.30;99.90;;;;;;5072803;28;20029;-79
2022/12/23 12:34:25;;;;;;;7.03;2.83;;;16.40;99.90;;;;;;5073283;28;20095;-79
2022/12/23 12:37:14;;;;;;;5.55;2.95;;;16.30;99.90;;;;;;5071494;28;20486;-79
2022/12/23 12:39:42;;;;;;;4.45;2.30;;;16.00;99.90;;;;;;5072872;28;20020;-79
2022/12/23 12:42:16;;;;;;;3.85;2.53;;;15.80;99.90;;;;;;5072579;28;20025;-79
2022/12/23 12:44:50;;;;;;;5.03;3.10;;;16.30;99.90;;;;;;5072404;28;20081;-79
2022/12/23 12:47:25;;;;;;;6.22;3.13;;;16.50;99.90;;;;;;5072718;28;20024;-79
2022/12/23 12:50:03;;;;;;;4.05;2.67;;;16.50;99.90;;;;;;5072837;28;20039;-79
2022/12/23 12:52:36;;;;;;;5.40;2.78;;;16.50;99.90;;;;;;5088111;28;20485;-79
2022/12/23 12:55:20;;;;;;;5.13;2.53;;;16.40;99.90;;;;;;5071586;28;20131;-79
2022/12/23 12:57:45;;;;;;;5.90;2.92;;;16.20;99.90;;;;;;5072263;28;20020;-79
2022/12/23 13:00:21;;;;;;;5.05;2.60;;;16.40;99.90;;;;;;5072473;28;20363;-79
2022/12/23 13:02:50;;;;;;;4.60;2.72;;;16.20;99.90;;;;;;5072804;28;20032;-79
2022/12/23 13:05:54;;;;;;;4.68;2.60;;;16.10;99.90;;;;;;5093015;28;20027;-79
2022/12/23 13:08:20;;;;;;;5.40;2.80;;;16.20;99.90;;;;;;5092857;28;20028;-79
2022/12/23 13:10:50;;;;;;;3.97;2.70;;;16.30;99.90;;;;;;5092169;28;20061;-78
2022/12/23 13:13:38;;;;;;;3.97;2.60;;;16.00;99.90;;;;;;5092515;28;20024;-79
2022/12/23 13:16:15;;;;;;;5.00;2.75;;;16.00;99.90;;;;;;5092648;28;20153;-79
2022/12/23 13:19:02;;;;;;;5.38;2.90;;;16.20;99.90;;;;;;5092815;28;20028;-79
2022/12/23 13:21:32;;;;;;;3.97;2.25;;;16.30;99.90;;;;;;5086359;28;20096;-79
2022/12/23 13:24:11;;;;;;;3.47;2.10;;;16.20;99.90;;;;;;5072491;28;20024;-79
2022/12/23 13:26:58;;;;;;;7.20;3.08;;;16.30;99.90;;;;;;5072075;28;20048;-79
2022/12/23 13:29:42;;;;;;;3.50;2.30;;;16.30;99.90;;;;;;5072048;28;20028;-79
2022/12/23 13:32:44;;;;;;;3.88;2.53;;;16.50;99.90;;;;;;5072132;28;20023;-79
2022/12/23 13:35:32;;;;;;;2.78;2.05;;;16.30;99.90;;;;;;5072205;28;20028;-79
2022/12/23 13:38:23;;;;;;;3.67;2.40;;;16.30;99.90;;;;;;5071946;28;20101;-79
2022/12/23 13:41:28;;;;;;;3.43;2.10;;;16.50;99.90;;;;;;5071843;28;20094;-79